Latest Weather Observations for Yunta

IDS60801

Issued at 5:01 pm CST Tuesday 20 April 2021 (issued every 10 minutes, with the page automatically refreshed every 10 minutes)

About weather observations | Map of weather stations | Latest weather observations for SA | Other Formats
Station Details ID: 020062 Name: YUNTA AIRSTRIP Lat: -32.57 Lon: 139.56 Height: 300.0 m
Data from the previous 72 hours. | See also: Recent months at Yunta
Date/Time
CST
Temp
°C
App
Temp
°C
Dew
Point
°C
Rel
Hum
%
Delta-T
°C
Wind Press
QNH
hPa
Press
MSL
hPa
Rain since
9am
mm
Dir  Spd
km/h
Gust
km/h
Spd
kts
Gust
kts
20/05:00pm 18.5 12.2 9.0 54 5.0 SW 32 43 17 23 1015.1 1014.5 0.0
20/04:30pm 19.7 12.7 8.4 48 6.0 SW 35 48 19 26 1014.7 1014.1 0.0
20/04:00pm 21.8 15.5 3.9 31 8.8 SW 26 35 14 19 1014.2 1013.6 0.0
20/03:30pm 22.2 15.5 3.8 30 9.0 WSW 28 37 15 20 1014.0 1013.4 0.0
20/03:00pm 22.6 16.0 4.2 30 9.1 WSW 28 39 15 21 1013.9 1013.3 0.0
20/02:30pm 22.5 15.3 3.1 28 9.4 WSW 30 39 16 21 1013.8 1013.2 0.0
20/02:00pm 23.1 15.7 2.0 25 10.1 WSW 30 41 16 22 1013.8 1013.2 0.0
20/01:30pm 22.6 14.4 0.4 23 10.3 W 33 44 18 24 1014.0 1013.4 0.0
20/01:00pm 22.3 14.2 0.8 24 10.0 W 33 46 18 25 1014.1 1013.5 0.0
20/12:32pm 22.4 14.5 0.9 24 10.0 W 32 52 17 28 1014.9 1014.3 0.0
20/12:30pm 22.3 14.3 1.9 26 9.7 W 33 52 18 28 1014.9 1014.3 0.0
20/12:00pm 22.3 14.2 1.3 25 9.8 W 33 48 18 26 1015.0 1014.4 0.0
20/11:42am 21.8 14.3 1.5 26 9.5 W 30 50 16 27 1015.2 1014.6 0.0
20/11:30am 21.5 14.1 1.7 27 9.3 W 30 43 16 23 1015.3 1014.7 0.0
20/11:00am 21.4 14.1 2.2 28 9.1 WNW 30 46 16 25 1015.5 1014.8 0.0
20/10:30am 20.6 14.0 2.0 29 8.7 WNW 26 39 14 21 1015.6 1014.9 0.0
20/10:00am 20.0 14.1 1.4 29 8.6 WNW 22 32 12 17 1015.7 1015.0 0.0
20/09:30am 18.0 12.6 1.5 33 7.5 WSW 19 26 10 14 1016.0 1015.3 0.0
20/09:00am 17.8 12.8 1.3 33 7.5 NNW 17 24 9 13 1016.1 1015.4 0.0
20/08:30am 16.2 10.9 1.9 38 6.5 N 19 26 10 14 1015.5 1014.8 0.0
20/08:00am 14.4 11.0 1.7 42 5.6 N 9 22 5 12 1015.5 1014.8 0.0
20/07:30am 12.4 8.6 1.7 48 4.7 N 11 15 6 8 1015.5 1014.8 0.0
20/07:00am 9.9 6.4 1.3 55 3.6 N 9 13 5 7 1015.3 1014.7 0.0
20/06:30am 6.6 4.2 -0.6 60 2.8 N 2 9 1 5 1015.3 1014.7 0.0
20/06:00am 7.3 4.6 0.3 61 2.8 N 4 6 2 3 1015.2 1014.6 0.0
20/05:30am 8.3 6.3 0.1 56 3.3 CALM 0 4 0 2 1015.0 1014.4 0.0
20/05:00am 9.3 7.3 0.2 53 3.7 CALM 0 6 0 3 1015.0 1014.4 0.0
20/04:30am 10.8 9.0 1.4 52 4.0 CALM 0 0 0 0 1015.0 1014.4 0.0
20/04:00am 11.6 8.4 1.0 48 4.5 N 7 17 4 9 1015.0 1014.4 0.0
20/03:30am 11.4 6.3 0.5 47 4.6 N 17 19 9 10 1014.8 1014.2 0.0
20/03:00am 11.3 6.2 0.7 48 4.5 N 17 19 9 10 1014.9 1014.3 0.0
20/02:30am 11.4 6.3 0.8 48 4.5 NNW 17 17 9 9 1015.1 1014.5 0.0
20/02:00am 11.4 6.7 0.8 48 4.5 NNW 15 19 8 10 1015.2 1014.6 0.0
20/01:30am 11.8 7.1 0.9 47 4.6 NNW 15 17 8 9 1015.5 1014.8 0.0
20/01:00am 12.1 7.4 0.8 46 4.8 NNW 15 17 8 9 1015.7 1015.0 0.0
20/12:30am 12.6 7.9 1.0 45 5.0 NNW 15 17 8 9 1015.8 1015.1 0.0
20/12:00am 13.4 9.9 1.1 43 5.3 NNW 9 13 5 7 1015.7 1015.0 0.0
 
Date/Time
CST
Temp
°C
App
Temp
°C
Dew
Point
°C
Rel
Hum
%
Delta-T
°C
Wind Press
QNH
hPa
Press
MSL
hPa
Rain since
9am
mm
Dir  Spd
km/h
Gust
km/h
Spd
kts
Gust
kts
19/11:30pm 13.7 9.1 1.4 43 5.4 NNW 15 17 8 9 1015.8 1015.1 0.0
19/11:00pm 13.8 9.1 1.1 42 5.5 NW 15 17 8 9 1016.1 1015.4 0.0
19/10:30pm 14.2 10.4 1.8 43 5.5 NW 11 13 6 7 1016.1 1015.4 0.0
19/10:00pm 14.3 10.4 1.2 41 5.7 NW 11 15 6 8 1016.2 1015.6 0.0
19/09:30pm 14.5 10.2 0.7 39 6.0 NW 13 17 7 9 1016.4 1015.8 0.0
19/09:00pm 15.2 10.8 0.2 36 6.5 NW 13 15 7 8 1016.3 1015.7 0.0
19/08:30pm 15.0 10.9 0.1 36 6.4 W 11 15 6 8 1016.1 1015.4 0.0
19/08:00pm 14.0 12.0 -0.1 38 6.0 CALM 0 4 0 2 1016.0 1015.3 0.0
19/07:30pm 14.7 10.9 -0.6 35 6.5 W 9 11 5 6 1015.9 1015.2 0.0
19/07:00pm 16.1 12.4 -0.2 33 7.0 W 9 11 5 6 1015.9 1015.2 0.0
19/06:30pm 17.3 13.5 -0.4 30 7.7 W 9 11 5 6 1015.7 1015.0 0.0
19/06:00pm 19.4 15.4 0.4 28 8.5 W 11 15 6 8 1015.6 1014.9 0.0
19/05:30pm 21.0 17.4 0.8 26 9.3 W 9 15 5 8 1015.2 1014.6 0.0
19/05:00pm 21.8 17.5 0.9 25 9.7 W 13 17 7 9 1015.2 1014.6 0.0
19/04:30pm 22.1 18.2 1.2 25 9.8 W 11 20 6 11 1015.1 1014.5 0.0
19/04:00pm 22.3 17.5 2.4 27 9.5 W 17 26 9 14 1015.1 1014.5 0.0
19/03:30pm 22.0 18.0 2.7 28 9.3 WNW 13 17 7 9 1015.3 1014.7 0.0
19/03:00pm 21.6 17.6 2.8 29 9.0 WNW 13 20 7 11 1015.8 1015.1 0.0
19/02:30pm 21.2 17.5 2.5 29 8.9 WNW 11 24 6 13 1016.0 1015.3 0.0
19/02:00pm 21.1 16.6 2.4 29 8.9 WNW 15 24 8 13 1016.3 1015.7 0.0
19/01:30pm 20.6 16.0 1.5 28 8.9 NW 15 24 8 13 1016.6 1016.0 0.0
19/01:00pm 20.4 15.9 2.3 30 8.5 WNW 15 28 8 15 1017.1 1016.5 0.0
19/12:30pm 20.0 16.1 3.3 33 8.0 NNW 13 24 7 13 1017.8 1017.2 0.0
19/12:00pm 19.6 15.6 2.9 33 7.9 NNW 13 22 7 12 1018.4 1017.8 0.0
19/11:30am 19.1 14.4 2.9 34 7.6 NW 17 26 9 14 1018.8 1018.2 0.0
19/11:00am 18.5 13.9 3.9 38 7.0 NE 17 26 9 14 1019.5 1018.9 0.0
19/10:30am 18.6 15.7 4.4 39 6.9 SE 9 17 5 9 1019.9 1019.3 0.0
19/10:00am 17.8 14.5 4.4 41 6.5 SE 11 19 6 10 1020.2 1019.6 0.0
19/09:30am 16.8 13.9 4.8 45 5.8 SSE 9 13 5 7 1020.4 1019.8 0.0
19/09:00am 16.0 15.1 5.9 51 4.9 CALM 0 0 0 0 1020.6 1020.0 0.0
19/08:30am 14.0 12.9 5.1 55 4.2 CALM 0 0 0 0 1020.7 1020.1 0.0
19/08:00am 11.0 9.3 4.2 63 3.1 SSE 2 4 1 2 1020.6 1020.0 0.0
19/07:30am 9.0 6.5 3.6 69 2.4 SSE 6 7 3 4 1020.5 1019.9 0.0
19/07:00am 6.6 3.2 2.1 73 1.9 SSE 9 11 5 6 1020.5 1019.9 0.0
19/06:30am 5.4 2.4 1.0 73 1.8 SSE 6 9 3 5 1020.4 1019.8 0.0
19/06:00am 3.5 1.2 -2.7 64 2.2 CALM 0 0 0 0 1020.3 1019.7 0.0
19/05:30am 3.8 1.4 -3.5 59 2.5 CALM 0 0 0 0 1020.3 1019.7 0.0
19/05:00am 4.6 2.4 -1.4 65 2.2 CALM 0 4 0 2 1020.3 1019.7 0.0
19/04:30am 4.6 2.3 -2.5 60 2.6 CALM 0 0 0 0 1020.3 1019.7 0.0
19/04:00am 4.8 2.5 -2.1 61 2.5 CALM 0 0 0 0 1020.2 1019.6 0.0
19/03:30am 5.2 2.3 -0.8 65 2.3 SSE 4 6 2 3 1020.1 1019.5 0.0
19/03:00am 6.7 3.4 0.4 64 2.5 SSE 7 7 4 4 1020.2 1019.6 0.0
19/02:30am 6.5 3.2 0.2 64 2.5 SSE 7 11 4 6 1020.6 1020.0 0.0
19/02:00am 6.1 3.9 -1.8 57 3.0 CALM 0 0 0 0 1020.8 1020.2 0.0
19/01:30am 7.5 5.5 0.0 59 3.0 CALM 0 0 0 0 1021.0 1020.4 0.0
19/01:00am 7.5 5.5 -0.2 58 3.1 CALM 0 0 0 0 1021.3 1020.7 0.0
19/12:30am 8.2 6.2 0.0 56 3.3 CALM 0 0 0 0 1021.6 1021.0 0.0
19/12:00am 8.5 6.5 0.2 56 3.3 CALM 0 0 0 0 1021.6 1021.0 0.0
 
Date/Time
CST
Temp
°C
App
Temp
°C
Dew
Point
°C
Rel
Hum
%
Delta-T
°C
Wind Press
QNH
hPa
Press
MSL
hPa
Rain since
9am
mm
Dir  Spd
km/h
Gust
km/h
Spd
kts
Gust
kts
18/11:30pm 8.9 7.1 1.1 58 3.2 CALM 0 0 0 0 1021.9 1021.4 0.0
18/11:00pm 9.8 6.9 1.5 56 3.5 SSE 6 7 3 4 1022.0 1021.5 0.0
18/10:30pm 10.3 7.3 2.2 57 3.5 SSE 7 9 4 5 1022.2 1021.7 0.0
18/10:00pm 11.1 7.1 2.7 56 3.7 SSE 13 15 7 8 1022.5 1021.9 0.0
18/09:30pm 11.2 8.6 0.9 49 4.3 SSE 4 6 2 3 1022.5 1021.9 0.0
18/09:00pm 14.4 11.9 3.8 49 4.9 SSE 6 11 3 6 1022.5 1021.9 0.0
18/08:30pm 13.3 11.8 3.1 50 4.6 CALM 0 4 0 2 1022.5 1021.9 0.0
18/08:00pm 13.9 11.3 3.1 48 4.9 SSE 6 7 3 4 1022.3 1021.8 0.0
18/07:30pm 15.5 12.3 3.3 44 5.6 SSE 9 11 5 6 1022.2 1021.7 0.0
18/07:00pm 16.5 12.2 3.2 41 6.2 SSE 15 20 8 11 1022.2 1021.7 0.0
18/06:30pm 16.7 13.4 2.7 39 6.4 S 9 11 5 6 1022.1 1021.6 0.0
18/06:00pm 17.8 14.5 2.2 35 7.2 S 9 11 5 6 1021.8 1021.2 0.0
18/05:30pm 19.1 15.7 2.0 32 7.9 S 9 13 5 7 1021.5 1020.9 0.0
18/05:00pm 19.9 16.2 2.3 31 8.3 S 11 17 6 9 1021.4 1020.8 0.0
18/04:30pm 20.2 16.5 2.5 31 8.3 S 11 19 6 10 1021.2 1020.6 0.0
18/04:00pm 20.7 18.0 2.5 30 8.6 S 6 13 3 7 1021.4 1020.8 0.0
18/03:30pm 20.4 16.7 2.3 30 8.5 S 11 20 6 11 1021.5 1020.9 0.0
18/03:00pm 20.1 17.2 2.5 31 8.3 S 7 17 4 9 1021.6 1021.0 0.0
18/02:30pm 19.7 16.3 2.1 31 8.2 S 9 15 5 8 1021.8 1021.2 0.0
18/02:00pm 19.9 16.6 2.7 32 8.1 S 9 17 5 9 1022.2 1021.7 0.0
18/01:30pm 19.5 15.9 2.8 33 7.9 SSE 11 19 6 10 1022.7 1022.1 0.0
18/01:00pm 18.8 15.6 3.0 35 7.5 SSE 9 19 5 10 1023.2 1022.6 0.0
18/12:30pm 18.5 15.3 2.8 35 7.3 S 9 17 5 9 1023.8 1023.2 0.0
18/12:00pm 18.0 14.9 3.5 38 6.8 SSE 9 17 5 9 1024.5 1023.9 0.0
18/11:30am 17.1 13.7 4.1 42 6.2 SSE 11 17 6 9 1025.0 1024.5 0.0
18/11:00am 17.4 15.3 4.0 41 6.4 SSE 4 13 2 7 1025.4 1024.9 0.0
18/10:30am 16.1 14.2 4.8 47 5.4 SSE 4 11 2 6 1025.7 1025.2 0.0
18/10:00am 15.4 13.6 5.6 52 4.8 SSE 4 7 2 4 1026.1 1025.5 0.0
18/09:30am 14.5 12.7 5.6 55 4.3 SSE 4 7 2 4 1026.2 1025.6 0.0
18/09:00am 13.5 12.4 4.9 56 4.0 CALM 0 0 0 0 1026.3 1025.7 0.0
18/08:30am 11.8 10.4 3.8 58 3.6 CALM 0 0 0 0 1026.3 1025.7 0.0
18/08:00am 8.7 7.0 2.1 63 2.8 CALM 0 0 0 0 1026.2 1025.6 0.0
18/07:30am 6.3 4.4 0.6 67 2.3 CALM 0 4 0 2 1025.9 1025.4 0.0
18/07:00am 3.6 0.1 -1.0 72 1.7 SSE 7 9 4 5 1025.8 1025.3 0.0
18/06:30am 3.0 0.5 -1.0 75 1.5 SSE 2 7 1 4 1025.8 1025.3 0.0
18/06:00am 4.3 1.1 0.8 78 1.4 SSE 7 9 4 5 1025.8 1025.3 0.0
18/05:30am 4.0 0.6 -0.4 73 1.7 SSE 7 7 4 4 1025.7 1025.2 0.0
18/05:00am 4.3 1.2 0.1 74 1.6 SSE 6 6 3 3 1025.6 1025.1 0.0
18/04:30am 4.7 2.8 0.5 74 1.6 CALM 0 0 0 0 1025.4 1024.9 0.0
18/04:00am 4.5 2.5 -0.3 71 1.8 CALM 0 0 0 0 1025.3 1024.8 0.0
18/03:30am 5.7 3.9 0.9 71 1.9 CALM 0 2 0 1 1025.2 1024.7 0.0
18/03:00am 6.5 4.0 1.4 70 2.1 SSE 4 6 2 3 1025.3 1024.8 0.0
18/02:30am 6.7 3.7 0.8 66 2.4 SSE 6 7 3 4 1025.6 1025.1 0.0
18/02:00am 7.5 4.0 1.4 65 2.5 SSE 9 11 5 6 1025.6 1025.1 0.0
18/01:30am 7.5 4.3 0.9 63 2.7 SSE 7 9 4 5 1025.8 1025.3 0.0
18/01:00am 8.5 5.1 1.6 62 2.9 SSE 9 11 5 6 1026.1 1025.5 0.0
18/12:30am 8.1 5.1 0.6 59 3.0 SSE 6 7 3 4 1026.2 1025.6 0.0
18/12:00am 8.7 4.7 0.7 57 3.3 SSE 11 13 6 7 1026.3 1025.7 0.0
 
Date/Time
CST
Temp
°C
App
Temp
°C
Dew
Point
°C
Rel
Hum
%
Delta-T
°C
Wind Press
QNH
hPa
Press
MSL
hPa
Rain since
9am
mm
Dir  Spd
km/h
Gust
km/h
Spd
kts
Gust
kts
17/11:30pm 9.0 5.4 0.5 55 3.5 SSE 9 13 5 7 1026.4 1025.8 0.0
17/11:00pm 9.4 6.1 0.3 53 3.7 SSE 7 9 4 5 1026.5 1025.9 0.0
17/10:30pm 9.6 6.2 -0.3 50 4.0 SSE 7 9 4 5 1026.5 1025.9 0.0
17/10:00pm 9.2 5.8 -0.9 49 4.0 SSE 7 9 4 5 1026.5 1025.9 0.0
17/09:30pm 10.4 7.1 0.2 49 4.2 SSE 7 9 4 5 1026.3 1025.7 0.0
17/09:00pm 11.0 6.6 0.4 48 4.4 SSE 13 15 7 8 1026.1 1025.5 0.0
17/08:30pm 11.3 8.0 -0.2 45 4.7 SSE 7 9 4 5 1025.8 1025.3 0.0
17/08:00pm 13.6 10.3 0.3 40 5.7 SSE 7 9 4 5 1025.7 1025.2 0.0
17/07:30pm 14.6 11.5 1.2 40 5.8 SSE 7 9 4 5 1025.7 1025.2 0.0
17/07:00pm 15.8 11.9 1.2 37 6.5 SSE 11 15 6 8 1025.4 1024.9 0.0
17/06:30pm 16.6 12.7 1.1 35 6.9 SSE 11 19 6 10 1025.3 1024.8 0.0
17/06:00pm 17.2 12.9 1.2 34 7.1 SSE 13 19 7 10 1025.1 1024.6 0.0
17/05:30pm 18.2 13.3 1.7 33 7.5 S 17 22 9 12 1024.7 1024.1 0.0

Other formats

Comma delimited format used in spreadsheet applications
http://www.bom.gov.au/fwo/IDS60801/IDS60801.94684.axf

JavaScript Object Notation format (JSON) in row-major order
http://www.bom.gov.au/fwo/IDS60801/IDS60801.94684.json

Data quality

Most of these data are generated automatically and are frequently updated. Quality checks on data are not normally performed. It is possible for incorrect values to appear. Refer to information at About Latest Weather Observations and please check the disclaimer before using these data.